Time;durP1;ratioP1;P1;durP2;ratioP2;P2;SDS_P1;SDS_P2;PMS_P1;PMS_P2;Temp;Humidity;BMP_temperature;BMP_pressure;BME280_temperature;BME280_humidity;BME280_pressure;Samples;Min_cycle;Max_cycle;Signal;HPM_P1;HPM_P2
2023/04/11 06:09:32;;;;;;;9.30;5.90;;;;;;;10.61;61.09;100716.15;104878;1289;616870;-82
2023/04/11 06:12:02;;;;;;;11.80;6.60;;;;;;;10.61;60.83;100712.87;106538;1257;60023;-81
2023/04/11 06:14:33;;;;;;;9.90;6.50;;;;;;;10.63;60.57;100708.55;106452;1260;60242;-84
2023/04/11 06:16:59;;;;;;;10.70;5.60;;;;;;;10.65;60.11;100707.14;106420;1257;73191;-85
2023/04/11 06:19:32;;;;;;;14.90;5.80;;;;;;;10.67;60.12;100702.85;106379;1258;63591;-84
2023/04/11 06:21:59;;;;;;;10.00;5.60;;;;;;;10.70;59.97;100700.23;107471;1257;850519;-83
2023/04/11 06:24:36;;;;;;;14.40;5.50;;;;;;;10.73;59.55;100695.16;108379;1255;60375;-83
2023/04/11 06:27:05;;;;;;;13.10;6.50;;;;;;;10.75;59.35;100695.53;107077;1255;60301;-86
2023/04/11 06:29:33;;;;;;;9.10;5.00;;;;;;;10.78;59.31;100691.02;106422;1257;73441;-85
2023/04/11 06:32:00;;;;;;;12.70;6.60;;;;;;;10.79;59.16;100696.20;106361;1257;62794;-86
2023/04/11 06:34:33;;;;;;;12.90;5.90;;;;;;;10.80;58.94;100694.21;106087;1256;72611;-83
2023/04/11 06:36:59;;;;;;;12.80;6.30;;;;;;;10.80;58.50;100688.48;106207;1258;60785;-83
2023/04/11 06:39:27;;;;;;;13.20;5.00;;;;;;;10.80;58.71;100688.97;106279;1257;60454;-86
2023/04/11 06:41:55;;;;;;;12.20;5.80;;;;;;;10.82;58.56;100685.21;106576;1257;73116;-83
2023/04/11 06:44:25;;;;;;;10.60;4.80;;;;;;;10.86;58.29;100688.98;106619;1256;64587;-84
2023/04/11 06:46:59;;;;;;;20.10;7.30;;;;;;;10.90;58.17;100682.92;106951;1256;73686;-85
2023/04/11 06:49:27;;;;;;;10.90;4.90;;;;;;;10.98;58.13;100683.52;106857;1256;60380;-83
2023/04/11 06:51:54;;;;;;;9.50;5.60;;;;;;;11.17;57.64;100685.34;109301;1256;60075;-83
2023/04/11 06:54:22;;;;;;;10.10;5.10;;;;;;;11.55;56.77;100682.94;108248;1255;72873;-83
2023/04/11 06:56:52;;;;;;;8.00;4.80;;;;;;;12.05;55.80;100676.08;108338;1254;63559;-85
2023/04/11 06:59:23;;;;;;;10.40;6.10;;;;;;;12.58;55.10;100674.02;107166;1254;73639;-86
2023/04/11 07:01:51;;;;;;;13.10;5.70;;;;;;;13.13;53.65;100673.93;106773;1251;60170;-85
2023/04/11 07:04:18;;;;;;;8.50;5.90;;;;;;;13.71;51.91;100665.30;106627;1251;60422;-85
2023/04/11 07:06:47;;;;;;;10.40;5.60;;;;;;;14.29;50.86;100663.62;106584;1254;74003;-86
2023/04/11 07:09:17;;;;;;;11.90;5.20;;;;;;;14.83;49.13;100662.55;106704;1250;64165;-85
2023/04/11 07:11:47;;;;;;;9.90;6.00;;;;;;;15.27;47.07;100665.66;106423;1251;73683;-86
2023/04/11 07:14:14;;;;;;;9.00;5.60;;;;;;;15.54;47.02;100661.39;106577;1251;60900;-84
2023/04/11 07:16:43;;;;;;;14.60;6.30;;;;;;;15.77;46.18;100660.30;106302;1251;60278;-85
2023/04/11 07:19:12;;;;;;;9.40;6.10;;;;;;;15.85;45.42;100657.04;106447;1251;72723;-86
2023/04/11 07:21:39;;;;;;;12.90;6.50;;;;;;;15.80;45.04;100657.80;106213;1251;64510;-85
2023/04/11 07:24:09;;;;;;;12.00;6.60;;;;;;;15.65;45.08;100658.77;106616;1254;74057;-83
2023/04/11 07:27:13;;;;;;;11.90;6.40;;;;;;;15.44;45.47;100653.91;106314;1251;60101;-89
2023/04/11 07:29:40;;;;;;;13.30;7.50;;;;;;;15.38;45.43;100647.69;106295;1251;61346;-85
2023/04/11 07:32:08;;;;;;;13.30;6.50;;;;;;;15.36;46.06;100645.91;106553;1251;74024;-84
2023/04/11 07:34:35;;;;;;;13.00;6.50;;;;;;;15.41;45.81;100648.36;106197;1255;64010;-85
2023/04/11 07:37:03;;;;;;;12.60;6.10;;;;;;;15.46;45.59;100641.47;106787;1251;73488;-84
2023/04/11 07:39:30;;;;;;;11.30;6.80;;;;;;;15.49;45.06;100639.38;106206;1251;60303;-82
2023/04/11 07:41:57;;;;;;;16.70;6.40;;;;;;;15.49;45.07;100635.90;106261;1252;60337;-84
2023/04/11 07:44:25;;;;;;;9.60;5.40;;;;;;;15.61;45.20;100625.98;106275;1251;73992;-84
2023/04/11 07:46:53;;;;;;;11.80;5.30;;;;;;;15.87;44.56;100631.33;106264;1250;64355;-82
2023/04/11 07:49:20;;;;;;;17.00;5.80;;;;;;;16.26;43.87;100627.02;106403;1251;72429;-85
2023/04/11 07:51:48;;;;;;;11.20;5.70;;;;;;;16.58;43.27;100623.77;106774;1251;60419;-85
2023/04/11 07:54:15;;;;;;;11.80;6.30;;;;;;;16.79;42.36;100620.38;106696;1251;61582;-83
2023/04/11 07:56:44;;;;;;;14.40;5.60;;;;;;;16.96;41.78;100616.26;109284;1250;73898;-84
2023/04/11 07:59:14;;;;;;;15.10;6.60;;;;;;;17.05;41.63;100615.20;108552;1253;63897;-82
2023/04/11 08:01:41;;;;;;;14.50;5.30;;;;;;;17.11;41.51;100607.16;107414;1251;72557;-86
2023/04/11 08:04:08;;;;;;;9.00;5.50;;;;;;;17.26;41.45;100603.95;106418;1251;60241;-85
2023/04/11 08:06:36;;;;;;;14.30;5.60;;;;;;;17.39;41.23;100602.96;106285;1251;60187;-85
2023/04/11 08:09:05;;;;;;;12.80;4.90;;;;;;;17.44;40.72;100594.09;106328;1251;73938;-85
2023/04/11 08:11:32;;;;;;;12.40;5.20;;;;;;;17.34;40.69;100594.06;105957;1251;65806;-85
2023/04/11 08:14:03;;;;;;;11.50;5.40;;;;;;;17.12;41.05;100591.02;106115;1251;73484;-84
2023/04/11 08:16:34;;;;;;;9.70;4.90;;;;;;;16.85;41.24;100583.36;106210;1257;61272;-86
2023/04/11 08:19:01;;;;;;;6.90;5.40;;;;;;;16.64;41.61;100574.75;106159;1251;61323;-84
2023/04/11 08:21:36;;;;;;;11.20;5.20;;;;;;;16.52;41.70;100577.67;106142;1251;73887;-83
2023/04/11 08:24:07;;;;;;;13.20;4.50;;;;;;;16.37;42.16;100566.23;106149;1251;64589;-83
2023/04/11 08:26:34;;;;;;;9.90;4.50;;;;;;;16.31;42.41;100565.89;106161;1251;73657;-85
2023/04/11 08:29:02;;;;;;;9.60;4.10;;;;;;;16.32;42.44;100563.54;106361;1251;60354;-87
2023/04/11 08:31:31;;;;;;;7.40;4.20;;;;;;;16.31;42.56;100565.85;106177;1251;61167;-84
2023/04/11 08:33:58;;;;;;;7.70;4.50;;;;;;;16.36;42.69;100560.84;106434;1254;73007;-83
2023/04/11 08:36:29;;;;;;;13.70;4.10;;;;;;;16.48;42.97;100555.99;106274;1251;63801;-83
2023/04/11 08:38:56;;;;;;;12.70;5.20;;;;;;;16.68;42.56;100574.88;106106;1251;72854;-84
2023/04/11 08:41:23;;;;;;;19.60;5.90;;;;;;;16.89;42.04;100560.44;106328;1251;60027;-81
2023/04/11 08:43:51;;;;;;;8.90;5.80;;;;;;;17.01;41.77;100554.08;106383;1251;61195;-83
2023/04/11 08:46:19;;;;;;;9.10;5.80;;;;;;;17.16;42.11;100547.23;106799;1255;73941;-86
2023/04/11 08:48:46;;;;;;;9.60;5.30;;;;;;;17.39;41.51;100536.21;106658;1251;65177;-82
2023/04/11 08:51:25;;;;;;;7.70;4.70;;;;;;;17.55;41.09;100529.63;106726;1251;73328;-83
2023/04/11 08:53:59;;;;;;;8.90;4.30;;;;;;;17.60;40.98;100523.66;106670;1255;60254;-86
2023/04/11 08:56:26;;;;;;;8.20;5.30;;;;;;;17.65;40.66;100513.99;106956;1251;61318;-85
2023/04/11 08:58:58;;;;;;;10.20;4.60;;;;;;;17.68;40.51;100517.08;107356;1254;72933;-82
2023/04/11 09:01:30;;;;;;;7.80;3.90;;;;;;;17.67;40.49;100502.86;108775;1251;63841;-84
2023/04/11 09:04:03;;;;;;;5.70;4.10;;;;;;;17.73;40.21;100503.61;108487;1250;72801;-84
2023/04/11 09:06:35;;;;;;;10.60;4.10;;;;;;;17.80;40.67;100494.30;108019;1251;61246;-84
2023/04/11 09:09:09;;;;;;;7.10;3.70;;;;;;;17.90;40.10;100493.58;106735;1251;61370;-88
2023/04/11 09:11:53;;;;;;;11.70;4.60;;;;;;;18.04;40.03;100498.65;106519;1250;73865;-85
2023/04/11 09:14:24;;;;;;;5.10;3.80;;;;;;;18.15;40.00;100489.28;107092;1251;65199;-83
2023/04/11 09:16:54;;;;;;;6.50;3.80;;;;;;;18.22;39.98;100482.53;107063;1254;71662;-86
2023/04/11 09:19:25;;;;;;;5.60;4.10;;;;;;;18.28;39.40;100478.46;106578;1251;60544;-82
2023/04/11 09:22:00;;;;;;;5.90;4.50;;;;;;;18.27;39.07;100477.88;106266;1251;61015;-85
2023/04/11 09:24:31;;;;;;;8.80;3.90;;;;;;;18.22;39.30;100473.37;106263;1256;74235;-85
2023/04/11 09:27:07;;;;;;;8.00;3.70;;;;;;;18.18;39.39;100463.99;106206;1255;64564;-87
2023/04/11 09:29:42;;;;;;;6.40;3.30;;;;;;;18.15;39.27;100466.10;106237;1250;72663;-85
2023/04/11 09:32:28;;;;;;;8.50;4.10;;;;;;;18.04;39.32;100460.64;106167;1256;61453;-86
2023/04/11 09:35:15;;;;;;;9.30;3.70;;;;;;;17.88;39.62;100460.45;106211;1256;60638;-85
2023/04/11 09:37:46;;;;;;;;;;;;;;;17.70;39.52;100459.27;106132;1255;73912;-85
2023/04/11 09:40:15;;;;;;;10.20;3.70;;;;;;;17.59;39.79;100456.09;106384;1250;64029;-85
2023/04/11 09:42:43;;;;;;;11.50;4.50;;;;;;;17.49;39.98;100455.02;106142;1251;72708;-87
2023/04/11 09:45:20;;;;;;;10.90;3.70;;;;;;;17.45;40.13;100453.86;106186;1251;61517;-87
2023/04/11 09:47:48;;;;;;;18.80;4.70;;;;;;;17.41;40.20;100441.07;106091;1254;60381;-87
2023/04/11 09:50:15;;;;;;;10.60;3.70;;;;;;;17.36;40.37;100441.71;106164;1251;74079;-85
2023/04/11 09:52:43;;;;;;;6.60;3.60;;;;;;;17.36;40.64;100436.02;106507;1250;65105;-87
2023/04/11 09:55:12;;;;;;;6.90;3.60;;;;;;;17.41;40.28;100431.88;106205;1251;73696;-85
2023/04/11 09:57:44;;;;;;;7.60;3.60;;;;;;;17.56;40.25;100436.02;105983;1256;61093;-88
2023/04/11 10:00:15;;;;;;;7.70;4.80;;;;;;;17.66;40.31;100426.23;106284;1251;61407;-86
2023/04/11 10:02:44;;;;;;;11.80;4.10;;;;;;;17.83;40.10;100426.08;106387;1253;72985;-85
2023/04/11 10:05:12;;;;;;;7.60;4.10;;;;;;;18.10;39.68;100412.62;107645;1251;65097;-85
2023/04/11 10:07:59;;;;;;;5.50;3.60;;;;;;;18.29;39.50;100410.94;109110;1251;72376;-84
2023/04/11 10:10:26;;;;;;;9.00;3.60;;;;;;;18.39;38.92;100406.41;108151;1251;60017;-84
2023/04/11 10:12:55;;;;;;;6.60;3.10;;;;;;;18.44;38.92;100404.15;106556;1251;61299;-86
2023/04/11 10:15:22;;;;;;;7.20;3.60;;;;;;;18.45;38.78;100393.43;106365;1251;74321;-88
2023/04/11 10:18:09;;;;;;;4.80;3.90;;;;;;;18.51;38.65;100380.73;106214;1258;64815;-87
2023/04/11 10:20:41;;;;;;;7.40;4.90;;;;;;;18.57;38.41;100374.00;106277;1251;73890;-84
2023/04/11 10:23:09;;;;;;;8.30;4.10;;;;;;;18.65;38.60;100373.63;106546;1251;61150;-85
2023/04/11 10:25:57;;;;;;;8.40;4.10;;;;;;;18.79;38.75;100368.95;106415;1251;60454;-84
2023/04/11 10:28:38;;;;;;;10.20;4.50;;;;;;;18.90;38.47;100374.20;106762;1250;74784;-86
2023/04/11 10:31:12;;;;;;;6.70;4.10;;;;;;;19.04;37.84;100381.23;106405;1253;64552;-84
2023/04/11 10:33:40;;;;;;;5.10;3.50;;;;;;;19.14;37.94;100374.64;106546;1253;71831;-84
2023/04/11 10:36:11;;;;;;;14.60;4.50;;;;;;;19.27;37.77;100370.19;106617;1251;61080;-86
2023/04/11 10:38:47;;;;;;;8.20;4.40;;;;;;;19.45;37.24;100371.05;106363;1253;60296;-87
2023/04/11 10:41:25;;;;;;;11.60;4.10;;;;;;;19.53;37.40;100367.21;106703;1253;75975;-88
2023/04/11 10:44:23;;;;;;;11.60;3.80;;;;;;;19.57;37.36;100365.59;106535;1251;62720;-85
2023/04/11 10:46:52;;;;;;;4.50;3.70;;;;;;;19.53;36.89;100347.21;106602;1251;74286;-85
2023/04/11 10:49:36;;;;;;;9.30;3.40;;;;;;;19.52;37.05;100344.97;106381;1251;60446;-85
2023/04/11 10:52:21;;;;;;;9.00;3.60;;;;;;;19.49;36.62;100346.05;106218;1250;61609;-86
2023/04/11 10:54:50;;;;;;;6.30;3.80;;;;;;;19.34;36.53;100349.49;106542;1253;74767;-84
2023/04/11 10:57:17;;;;;;;12.10;4.00;;;;;;;19.14;36.54;100347.39;106565;1253;64443;-88
2023/04/11 10:59:50;;;;;;;7.40;3.70;;;;;;;19.00;36.98;100352.16;106289;1253;73721;-86
2023/04/11 11:02:18;;;;;;;7.10;3.50;;;;;;;18.93;37.09;100345.58;106311;1249;61361;-87
2023/04/11 11:04:45;;;;;;;7.40;4.10;;;;;;;18.86;37.33;100339.09;106399;1253;60409;-85
2023/04/11 11:07:14;;;;;;;6.10;3.80;;;;;;;18.77;37.41;100336.73;106788;1250;74789;-86
2023/04/11 11:09:51;;;;;;;8.40;4.40;;;;;;;18.76;37.37;100329.73;108317;1251;63806;-85
2023/04/11 11:12:18;;;;;;;6.30;4.10;;;;;;;18.85;37.41;100328.16;108459;1251;72493;-86
2023/04/11 11:14:48;;;;;;;6.90;3.90;;;;;;;18.90;37.41;100323.58;109139;1249;60456;-83
2023/04/11 11:17:17;;;;;;;5.30;4.30;;;;;;;18.94;37.18;100330.60;108550;1250;60143;-84
2023/04/11 11:19:47;;;;;;;10.90;4.20;;;;;;;18.99;37.11;100321.05;108766;1251;74603;-83
2023/04/11 11:22:16;;;;;;;8.40;3.10;;;;;;;19.00;37.14;100316.92;107858;1253;63673;-87
2023/04/11 11:24:47;;;;;;;9.30;2.50;;;;;;;18.96;37.00;100326.35;106415;1251;73695;-86
2023/04/11 11:27:22;;;;;;;5.70;3.20;;;;;;;18.88;36.89;100323.66;106271;1250;60403;-86
2023/04/11 11:29:52;;;;;;;5.90;2.70;;;;;;;18.72;37.06;100324.96;106478;1250;61287;-86
2023/04/11 11:32:27;;;;;;;4.30;2.70;;;;;;;18.51;37.43;100325.59;106381;1257;74831;-85
2023/04/11 11:35:12;;;;;;;8.50;2.80;;;;;;;18.30;37.95;100327.16;106273;1250;64894;-87
2023/04/11 11:37:40;;;;;;;9.00;3.00;;;;;;;18.14;38.14;100328.68;106206;1253;73852;-84
2023/04/11 11:40:11;;;;;;;5.40;3.10;;;;;;;17.99;38.45;100323.98;106847;1253;61653;-84
2023/04/11 11:42:39;;;;;;;7.30;2.70;;;;;;;17.89;38.69;100319.02;106242;1251;60399;-86
2023/04/11 11:45:17;;;;;;;7.80;4.00;;;;;;;17.85;38.88;100313.96;106275;1251;72570;-86
2023/04/11 11:47:44;;;;;;;16.90;4.00;;;;;;;17.84;39.05;100309.34;106337;1253;64719;-85
2023/04/11 11:50:28;;;;;;;8.60;4.80;;;;;;;17.84;39.42;100301.88;106366;1255;73710;-85
2023/04/11 11:53:12;;;;;;;8.80;4.30;;;;;;;17.83;39.37;100294.02;106346;1251;61442;-88
2023/04/11 11:55:46;;;;;;;9.00;4.40;;;;;;;17.77;39.61;100288.70;106316;1250;61540;-86
2023/04/11 11:58:18;;;;;;;7.20;3.20;;;;;;;17.70;39.26;100292.25;106184;1254;74680;-88
2023/04/11 12:00:49;;;;;;;17.80;5.70;;;;;;;17.61;39.47;100286.36;106201;1256;64852;-85
2023/04/11 12:03:19;;;;;;;11.70;3.90;;;;;;;17.51;39.86;100286.38;107002;1249;74406;-85
2023/04/11 12:05:47;;;;;;;5.40;3.40;;;;;;;17.47;39.95;100271.44;107215;1253;60431;-87
2023/04/11 12:08:15;;;;;;;6.70;3.20;;;;;;;17.44;40.37;100265.86;106554;1251;60879;-84
2023/04/11 12:10:45;;;;;;;7.70;3.70;;;;;;;17.44;40.44;100272.07;106720;1251;74726;-85
2023/04/11 12:13:19;;;;;;;11.00;3.60;;;;;;;17.48;40.19;100259.45;106900;1255;63637;-87
2023/04/11 12:15:56;;;;;;;8.70;4.00;;;;;;;17.53;39.91;100257.92;109204;1250;73650;-85
2023/04/11 12:18:33;;;;;;;9.00;3.40;;;;;;;17.53;40.02;100259.30;107774;1249;60344;-84
2023/04/11 12:21:01;;;;;;;9.70;3.00;;;;;;;17.48;39.89;100253.07;107022;1250;60469;-88
2023/04/11 12:23:29;;;;;;;7.20;4.10;;;;;;;17.43;40.14;100255.38;106379;1250;74833;-83
2023/04/11 12:25:58;;;;;;;8.40;3.60;;;;;;;17.32;40.11;100249.81;106547;1253;64750;-85
2023/04/11 12:28:26;;;;;;;10.30;3.50;;;;;;;17.23;40.40;100249.97;106423;1250;72513;-86
2023/04/11 12:30:52;;;;;;;11.80;3.10;;;;;;;17.17;40.56;100250.84;106206;1254;60535;-86
2023/04/11 12:33:20;;;;;;;5.90;3.70;;;;;;;17.12;40.52;100240.73;106199;1252;61082;-84
2023/04/11 12:35:47;;;;;;;10.60;3.60;;;;;;;17.07;40.52;100238.77;106756;1251;74688;-87
2023/04/11 12:38:14;;;;;;;11.20;3.80;;;;;;;17.00;40.61;100239.02;106988;1251;64855;-84
2023/04/11 12:40:45;;;;;;;9.40;3.70;;;;;;;16.92;40.88;100225.98;106622;1250;73364;-88
2023/04/11 12:43:12;;;;;;;12.60;3.30;;;;;;;16.85;40.96;100229.88;106319;1251;60549;-88
2023/04/11 12:45:40;;;;;;;8.80;3.70;;;;;;;16.78;41.16;100226.58;106368;1252;61145;-86
2023/04/11 12:48:07;;;;;;;7.90;4.50;;;;;;;16.73;41.25;100222.65;106415;1252;74773;-85
2023/04/11 12:50:35;;;;;;;10.50;4.40;;;;;;;16.68;41.36;100217.77;106435;1253;64655;-85
2023/04/11 12:53:02;;;;;;;10.20;4.50;;;;;;;16.64;41.45;100222.21;106314;1251;73723;-86
2023/04/11 12:55:29;;;;;;;7.80;4.00;;;;;;;16.60;41.66;100217.48;106125;1253;60411;-85
2023/04/11 12:57:56;;;;;;;9.90;4.60;;;;;;;16.56;41.80;100210.27;106400;1250;60412;-85
2023/04/11 13:00:24;;;;;;;8.10;4.70;;;;;;;16.53;41.96;100199.56;106576;1251;73822;-86
2023/04/11 13:03:16;;;;;;;6.50;3.90;;;;;;;16.50;42.17;100201.05;106963;1254;66699;-86
2023/04/11 13:05:45;;;;;;;8.00;3.50;;;;;;;16.50;42.19;100198.23;106768;1251;74529;-85
2023/04/11 13:08:13;;;;;;;12.90;4.40;;;;;;;16.50;42.52;100201.11;106559;1251;61344;-86
2023/04/11 13:10:40;;;;;;;9.50;2.90;;;;;;;16.48;42.63;100203.00;106635;1251;61372;-86
2023/04/11 13:13:07;;;;;;;8.20;3.10;;;;;;;16.46;42.61;100198.79;106548;1250;74734;-86
2023/04/11 13:15:45;;;;;;;10.50;4.00;;;;;;;16.43;42.79;100205.76;106830;1253;64929;-87
2023/04/11 13:18:13;;;;;;;11.30;2.90;;;;;;;16.41;42.77;100204.74;107250;1250;73467;-87
2023/04/11 13:20:41;;;;;;;9.40;4.80;;;;;;;16.41;43.16;100199.82;109654;1250;60043;-86
2023/04/11 13:23:08;;;;;;;6.70;4.00;;;;;;;16.42;43.24;100201.78;108523;1251;60428;-83
2023/04/11 13:25:37;;;;;;;8.40;3.00;;;;;;;16.46;43.11;100199.56;107420;1253;74324;-86
2023/04/11 13:28:06;;;;;;;9.70;4.40;;;;;;;16.46;43.26;100200.38;106301;1251;64553;-88
2023/04/11 13:30:33;;;;;;;9.80;4.60;;;;;;;16.46;43.20;100194.77;106505;1251;72738;-90
2023/04/11 13:33:02;;;;;;;8.80;3.80;;;;;;;16.47;43.45;100196.97;106501;1251;61364;-88
2023/04/11 13:35:30;;;;;;;12.30;4.70;;;;;;;16.47;43.52;100191.79;106461;1251;60856;-87
2023/04/11 13:37:56;;;;;;;13.00;5.30;;;;;;;16.48;43.52;100184.63;106600;1251;74788;-86
2023/04/11 13:40:24;;;;;;;6.70;4.60;;;;;;;16.48;43.52;100189.98;106558;1251;63588;-85
2023/04/11 13:42:53;;;;;;;11.80;5.20;;;;;;;16.46;43.41;100182.05;106491;1252;73666;-87
2023/04/11 13:45:20;;;;;;;8.70;4.30;;;;;;;16.45;43.35;100180.88;106252;1251;61394;-86
2023/04/11 13:47:48;;;;;;;10.80;3.60;;;;;;;16.41;42.88;100177.16;106286;1250;60954;-87
2023/04/11 13:50:15;;;;;;;8.30;4.50;;;;;;;16.39;43.10;100176.35;106366;1251;75286;-85
2023/04/11 13:52:43;;;;;;;7.00;4.00;;;;;;;16.37;43.10;100175.08;106299;1251;64757;-88
2023/04/11 13:55:10;;;;;;;8.10;4.40;;;;;;;16.34;43.24;100176.04;106503;1251;73326;-87
2023/04/11 13:57:37;;;;;;;14.10;5.50;;;;;;;16.33;43.47;100168.07;106466;1253;61507;-87
2023/04/11 14:00:10;;;;;;;12.80;6.80;;;;;;;16.31;43.45;100159.91;106501;1251;60655;-87
2023/04/11 14:02:38;;;;;;;14.40;5.60;;;;;;;16.31;43.35;100169.99;106542;1251;73580;-87
2023/04/11 14:05:07;;;;;;;7.70;5.20;;;;;;;16.30;43.25;100160.06;106599;1253;65212;-85
2023/04/11 14:07:34;;;;;;;6.90;5.10;;;;;;;16.27;43.49;100160.83;106780;1255;72407;-86
2023/04/11 14:10:02;;;;;;;9.20;4.90;;;;;;;16.26;43.69;100156.85;106628;1251;61117;-83
2023/04/11 14:12:31;;;;;;;8.40;5.40;;;;;;;16.25;43.74;100158.36;106692;1251;60523;-83
2023/04/11 14:14:58;;;;;;;13.70;4.90;;;;;;;16.25;43.71;100156.83;106594;1253;74576;-84
2023/04/11 14:17:26;;;;;;;14.70;5.20;;;;;;;16.23;43.94;100152.05;106457;1255;64741;-85
2023/04/11 14:19:53;;;;;;;10.00;4.30;;;;;;;16.21;44.09;100149.75;106823;1251;73635;-87
2023/04/11 14:22:20;;;;;;;7.60;3.90;;;;;;;16.17;44.09;100145.50;106746;1251;61248;-83
2023/04/11 14:24:50;;;;;;;6.50;3.50;;;;;;;16.14;44.13;100145.91;108935;1251;61529;-85
2023/04/11 14:27:17;;;;;;;8.00;3.40;;;;;;;16.13;44.24;100141.45;109096;1251;73386;-86
2023/04/11 14:29:46;;;;;;;8.10;3.50;;;;;;;16.11;44.36;100143.05;108106;1251;64765;-85
2023/04/11 14:32:13;;;;;;;8.50;4.20;;;;;;;16.08;44.41;100134.36;106684;1251;72877;-88
2023/04/11 14:34:45;;;;;;;7.00;3.30;;;;;;;16.06;44.32;100137.03;106396;1251;60629;-88
2023/04/11 14:37:12;;;;;;;12.60;3.80;;;;;;;16.04;44.47;100139.79;106186;1251;60421;-89
2023/04/11 14:39:38;;;;;;;5.40;2.90;;;;;;;16.03;44.47;100139.78;106260;1253;75050;-86
2023/04/11 14:42:06;;;;;;;7.80;3.30;;;;;;;16.01;44.66;100137.08;106544;1253;64810;-85
2023/04/11 14:44:34;;;;;;;10.50;3.80;;;;;;;15.99;44.72;100132.70;106407;1251;73750;-84
2023/04/11 14:47:01;;;;;;;12.00;4.30;;;;;;;15.97;44.71;100131.79;106619;1251;61065;-86
2023/04/11 14:49:28;;;;;;;6.00;2.50;;;;;;;15.96;44.80;100132.77;106407;1251;60975;-82
2023/04/11 14:52:01;;;;;;;5.70;3.30;;;;;;;15.95;44.67;100132.85;106973;1251;74588;-84
2023/04/11 14:54:28;;;;;;;8.70;3.20;;;;;;;15.93;44.81;100128.59;106612;1251;64000;-88
2023/04/11 14:56:56;;;;;;;7.00;3.00;;;;;;;15.92;44.98;100128.17;107067;1250;73695;-86
2023/04/11 14:59:24;;;;;;;6.10;3.00;;;;;;;15.91;45.19;100128.87;107337;1257;61343;-83
2023/04/11 15:01:51;;;;;;;10.10;3.00;;;;;;;15.89;45.07;100128.83;106558;1252;60530;-87
2023/04/11 15:04:18;;;;;;;7.80;3.50;;;;;;;15.87;45.11;100124.97;106606;1253;74706;-85
2023/04/11 15:06:47;;;;;;;8.90;3.00;;;;;;;15.85;45.14;100129.88;106477;1257;63635;-87
2023/04/11 15:09:20;;;;;;;6.10;2.70;;;;;;;15.85;45.04;100130.48;106413;1253;73536;-87
2023/04/11 15:11:48;;;;;;;4.40;3.00;;;;;;;15.84;45.14;100133.55;106552;1256;61270;-85
2023/04/11 15:14:17;;;;;;;7.20;3.30;;;;;;;15.81;45.32;100132.06;106430;1251;61315;-85
2023/04/11 15:16:46;;;;;;;7.20;3.20;;;;;;;15.79;45.36;100130.14;106490;1250;74810;-86
2023/04/11 15:19:13;;;;;;;7.00;3.70;;;;;;;15.77;45.56;100129.05;106395;1251;64037;-88
2023/04/11 15:21:45;;;;;;;8.60;3.30;;;;;;;15.74;45.78;100124.84;106652;1251;73658;-84
2023/04/11 15:24:15;;;;;;;7.00;4.10;;;;;;;15.72;45.89;100126.80;106734;1253;61182;-85
2023/04/11 15:26:45;;;;;;;9.30;3.60;;;;;;;15.70;45.85;100124.70;106947;1251;60498;-86
2023/04/11 15:29:16;;;;;;;7.00;3.30;;;;;;;15.68;46.08;100127.34;108682;1251;73095;-83
2023/04/11 15:31:48;;;;;;;13.80;4.00;;;;;;;15.67;46.08;100122.67;108952;1250;63579;-84
2023/04/11 15:34:22;;;;;;;7.70;3.50;;;;;;;15.66;46.10;100126.31;108578;1251;72605;-85
2023/04/11 15:36:53;;;;;;;5.00;3.30;;;;;;;15.65;46.15;100128.52;106720;1251;60393;-84
2023/04/11 15:39:21;;;;;;;8.00;3.40;;;;;;;15.64;46.41;100124.71;106489;1254;61263;-85
2023/04/11 15:41:49;;;;;;;5.70;3.60;;;;;;;15.61;46.52;100123.02;106573;1251;74539;-85
2023/04/11 15:44:16;;;;;;;10.40;4.00;;;;;;;15.60;46.42;100121.67;106270;1254;64827;-86
2023/04/11 15:46:44;;;;;;;8.60;4.10;;;;;;;15.60;46.42;100118.77;106382;1249;72512;-87
2023/04/11 15:49:14;;;;;;;10.70;4.30;;;;;;;15.58;46.52;100115.02;106414;1254;61346;-87
2023/04/11 15:51:44;;;;;;;13.20;4.40;;;;;;;15.57;46.64;100108.73;106915;1250;60925;-87
2023/04/11 15:54:11;;;;;;;8.60;3.80;;;;;;;15.56;46.73;100113.38;106632;1251;73699;-88
2023/04/11 15:56:39;;;;;;;11.90;3.70;;;;;;;15.55;46.74;100112.46;106783;1253;64843;-85
2023/04/11 15:59:10;;;;;;;9.60;4.10;;;;;;;15.54;46.99;100111.33;106284;1252;72372;-86
2023/04/11 16:01:45;;;;;;;9.20;3.20;;;;;;;15.51;47.06;100103.97;106572;1251;61142;-86
2023/04/11 16:04:41;;;;;;;12.10;3.80;;;;;;;15.49;47.19;100097.95;107006;1253;61142;-85
2023/04/11 16:07:11;;;;;;;10.80;3.80;;;;;;;15.47;47.25;100094.45;106866;1251;73876;-86
2023/04/11 16:09:38;;;;;;;9.10;4.20;;;;;;;15.46;47.32;100094.60;107216;1250;64436;-86
2023/04/11 16:12:06;;;;;;;9.00;4.20;;;;;;;15.44;47.44;100093.83;106890;1251;73334;-87
2023/04/11 16:14:34;;;;;;;6.10;4.20;;;;;;;15.44;47.50;100092.86;106638;1253;60459;-84
2023/04/11 16:17:02;;;;;;;5.80;3.70;;;;;;;15.42;47.72;100088.63;106750;1251;60970;-85
2023/04/11 16:19:30;;;;;;;9.70;3.90;;;;;;;15.40;47.98;100086.54;106578;1251;74785;-85
2023/04/11 16:21:57;;;;;;;9.40;4.30;;;;;;;15.37;48.05;100088.34;106491;1254;63612;-88
2023/04/11 16:24:27;;;;;;;9.20;5.40;;;;;;;15.35;48.39;100083.36;106603;1251;71574;-84
2023/04/11 16:26:56;;;;;;;7.80;4.80;;;;;;;15.33;48.62;100083.89;106616;1253;61239;-86
2023/04/11 16:29:23;;;;;;;8.30;5.10;;;;;;;15.31;48.89;100078.13;106900;1253;61378;-87
2023/04/11 16:31:50;;;;;;;13.10;5.70;;;;;;;15.28;48.96;100076.05;107541;1251;74817;-86
2023/04/11 16:34:20;;;;;;;12.50;5.80;;;;;;;15.26;49.35;100075.36;108702;1251;64444;-86
2023/04/11 16:36:47;;;;;;;13.00;6.00;;;;;;;15.25;49.37;100073.58;109170;1251;72554;-86
2023/04/11 16:39:15;;;;;;;12.40;6.60;;;;;;;15.22;49.41;100074.63;108936;1251;60453;-86
2023/04/11 16:41:46;;;;;;;12.60;5.80;;;;;;;15.22;49.60;100073.63;107206;1251;60543;-86
2023/04/11 16:44:16;;;;;;;12.30;6.80;;;;;;;15.20;49.81;100072.38;106885;1251;75428;-87
2023/04/11 16:46:45;;;;;;;17.50;9.10;;;;;;;15.18;49.76;100075.17;106905;1251;64652;-85
2023/04/11 16:49:15;;;;;;;20.10;10.10;;;;;;;15.18;49.66;100073.63;106822;1251;73630;-87
2023/04/11 16:51:42;;;;;;;12.10;9.40;;;;;;;15.18;49.86;100078.38;106516;1256;61671;-88
2023/04/11 16:54:12;;;;;;;16.60;10.50;;;;;;;15.17;49.85;100083.02;106535;1251;61197;-87
2023/04/11 16:56:41;;;;;;;13.50;9.80;;;;;;;15.17;49.88;100081.98;106645;1254;74575;-87
2023/04/11 16:59:11;;;;;;;18.30;11.50;;;;;;;15.17;50.02;100079.90;106640;1254;64786;-88
2023/04/11 17:01:40;;;;;;;15.90;10.40;;;;;;;15.17;50.16;100077.60;106754;1263;73600;-86
2023/04/11 17:04:09;;;;;;;15.70;9.00;;;;;;;15.17;50.18;100083.96;106326;1251;60405;-86
2023/04/11 17:06:36;;;;;;;11.20;9.20;;;;;;;15.17;50.20;100077.98;106602;1253;61868;-87
2023/04/11 17:09:06;;;;;;;9.20;7.70;;;;;;;15.17;50.22;100076.51;106524;1252;73701;-88
2023/04/11 17:11:38;;;;;;;9.30;8.00;;;;;;;15.18;50.36;100078.42;106628;1257;63595;-87
2023/04/11 17:14:09;;;;;;;9.00;6.20;;;;;;;15.18;50.46;100079.81;106744;1251;73648;-86
2023/04/11 17:16:36;;;;;;;10.10;5.70;;;;;;;15.17;50.49;100078.45;106960;1251;61658;-86
2023/04/11 17:19:03;;;;;;;12.70;5.90;;;;;;;15.17;50.51;100082.21;106521;1253;60421;-87
2023/04/11 17:21:37;;;;;;;12.40;5.30;;;;;;;15.17;50.70;100085.20;106702;1254;73792;-87
2023/04/11 17:24:06;;;;;;;12.90;4.90;;;;;;;15.16;50.79;100081.75;106522;1256;66143;-86
2023/04/11 17:26:34;;;;;;;8.50;5.20;;;;;;;15.15;50.85;100081.98;106585;1256;73868;-87
2023/04/11 17:29:02;;;;;;;8.70;5.30;;;;;;;15.15;50.83;100084.85;106767;1253;61334;-87
2023/04/11 17:31:31;;;;;;;6.90;4.90;;;;;;;15.13;51.20;100091.09;106257;1252;60380;-88
2023/04/11 17:33:59;;;;;;;10.30;5.20;;;;;;;15.13;51.24;100098.02;106681;1257;74797;-87
2023/04/11 17:36:27;;;;;;;11.50;4.90;;;;;;;15.12;51.29;100099.34;106941;1251;63490;-87